Terminal Aerodrome Forecast
Issued by NWS Quad Cities IA IL

Home | Current Version | Previous Version | Text Only | Print | Product List | Glossary On
Versions: 1 2 3 4 5 6 7 8 9 10 11 12 13 14 15 16 17 18 19 20 21 22 23 24
000
FTUS43 KDVN 262000 AAA
TAFMLI
TAF AMD
KMLI 262028Z 2620/2718 10010KT 6SM BR OVC015
     FM270200 07005KT 3SM -SN BR OVC015
     FM270500 36009KT P6SM OVC015
     FM271200 30011KT P6SM SCT025=

USA.gov is the U.S. government's official web portal to all federal, state and local government web resources and services.